Time;durP1;ratioP1;P1;durP2;ratioP2;P2;SDS_P1;SDS_P2;PMS_P1;PMS_P2;Temp;Humidity;BMP_temperature;BMP_pressure;BME280_temperature;BME280_humidity;BME280_pressure;Samples;Min_cycle;Max_cycle;Signal;HPM_P1;HPM_P2
2023/04/28 00:00:49;;;;;;;9.77;3.63;;;10.60;60.30;;;;;;5053741;28;20056;-65
2023/04/28 00:03:15;;;;;;;9.07;4.20;;;10.60;60.90;;;;;;5053988;28;20025;-65
2023/04/28 00:05:41;;;;;;;9.70;5.00;;;10.60;61.30;;;;;;5053659;28;20032;-65
2023/04/28 00:08:07;;;;;;;9.05;4.10;;;10.50;61.90;;;;;;5053883;28;20029;-65
2023/04/28 00:10:33;;;;;;;11.13;4.20;;;10.50;62.60;;;;;;5053513;28;20070;-65
2023/04/28 00:12:59;;;;;;;10.63;4.53;;;10.40;63.30;;;;;;5053875;28;20032;-63
2023/04/28 00:15:25;;;;;;;12.60;5.05;;;10.40;63.60;;;;;;5053773;28;20025;-64
2023/04/28 00:17:51;;;;;;;10.73;5.15;;;10.30;64.30;;;;;;5053261;28;20416;-64
2023/04/28 00:20:16;;;;;;;7.15;4.38;;;10.20;65.00;;;;;;5053698;28;20477;-65
2023/04/28 00:22:42;;;;;;;11.20;5.00;;;10.10;66.00;;;;;;5053298;28;20025;-64
2023/04/28 00:25:08;;;;;;;8.80;4.93;;;10.10;66.10;;;;;;5053610;28;20420;-65
2023/04/28 00:27:35;;;;;;;12.70;5.18;;;10.10;66.50;;;;;;5053151;28;20063;-65
2023/04/28 00:30:01;;;;;;;10.63;5.40;;;10.00;67.00;;;;;;5053398;28;20036;-64
2023/04/28 00:32:26;;;;;;;9.60;4.97;;;10.00;66.90;;;;;;5053809;28;20029;-63
2023/04/28 00:34:52;;;;;;;13.35;4.53;;;9.90;67.20;;;;;;5053011;28;20021;-65
2023/04/28 00:37:19;;;;;;;11.63;5.20;;;9.90;67.40;;;;;;5053412;28;20057;-64
2023/04/28 00:39:45;;;;;;;14.07;5.05;;;9.90;67.40;;;;;;5052934;28;20025;-64
2023/04/28 00:42:12;;;;;;;12.35;5.25;;;9.80;67.30;;;;;;5052703;28;20453;-65
2023/04/28 00:44:38;;;;;;;12.88;5.32;;;9.80;68.00;;;;;;5051864;28;20132;-65
2023/04/28 00:47:04;;;;;;;10.05;5.32;;;9.80;68.30;;;;;;5053099;28;20029;-65
2023/04/28 00:49:30;;;;;;;8.52;4.88;;;9.80;68.80;;;;;;5052917;28;20151;-65
2023/04/28 00:51:56;;;;;;;9.85;5.32;;;9.70;68.40;;;;;;5052382;28;20484;-65
2023/04/28 00:54:22;;;;;;;9.88;5.03;;;9.70;68.40;;;;;;5053084;28;20021;-66
2023/04/28 00:56:48;;;;;;;9.70;4.60;;;9.70;68.10;;;;;;5052496;28;20024;-65
2023/04/28 00:59:14;;;;;;;10.27;5.13;;;9.70;68.50;;;;;;5053111;28;20029;-65
2023/04/28 01:01:39;;;;;;;14.85;5.05;;;9.60;68.60;;;;;;5052463;28;20104;-65
2023/04/28 01:04:05;;;;;;;10.20;4.45;;;9.60;68.80;;;;;;5052612;28;20028;-64
2023/04/28 01:06:32;;;;;;;11.40;4.68;;;9.60;68.50;;;;;;5052996;28;20048;-65
2023/04/28 01:08:57;;;;;;;12.75;4.97;;;9.60;69.20;;;;;;5052437;28;20028;-64
2023/04/28 01:11:23;;;;;;;14.57;5.85;;;9.60;69.10;;;;;;5052887;28;20067;-63
2023/04/28 01:13:48;;;;;;;11.20;5.32;;;9.50;69.10;;;;;;5051872;28;20071;-65
2023/04/28 01:16:14;;;;;;;11.43;4.57;;;9.50;69.50;;;;;;5053115;28;20387;-65
2023/04/28 01:18:46;;;;;;;14.32;5.53;;;9.50;69.30;;;;;;5052322;28;20116;-65
2023/04/28 01:21:12;;;;;;;10.02;4.72;;;9.40;69.30;;;;;;5052922;28;20112;-65
2023/04/28 01:23:38;;;;;;;8.32;4.63;;;9.50;69.90;;;;;;5051033;28;20108;-65
2023/04/28 01:26:04;;;;;;;9.70;4.80;;;9.40;69.70;;;;;;5052600;28;20025;-65
2023/04/28 01:28:29;;;;;;;10.20;5.22;;;9.40;69.70;;;;;;5052735;28;20025;-65
2023/04/28 01:30:55;;;;;;;13.32;5.20;;;9.40;69.70;;;;;;5052123;28;20052;-64
2023/04/28 01:33:21;;;;;;;8.30;5.53;;;9.30;69.90;;;;;;5052620;28;20438;-64
2023/04/28 01:35:46;;;;;;;12.10;6.10;;;9.30;69.80;;;;;;5051973;28;20570;-64
2023/04/28 01:38:31;;;;;;;10.20;5.70;;;9.20;70.00;;;;;;5052140;28;20032;-64
2023/04/28 01:40:57;;;;;;;10.10;5.60;;;9.20;70.20;;;;;;5052156;28;20052;-64
2023/04/28 01:43:23;;;;;;;9.40;5.05;;;9.30;70.10;;;;;;5052171;28;20035;-64
2023/04/28 01:45:48;;;;;;;10.93;5.57;;;9.20;70.20;;;;;;5051767;28;20045;-64
2023/04/28 01:48:14;;;;;;;10.15;5.50;;;9.20;70.50;;;;;;5052192;28;20025;-63
2023/04/28 01:50:40;;;;;;;12.18;5.90;;;9.10;70.80;;;;;;5052046;28;20025;-65
2023/04/28 01:53:05;;;;;;;10.02;5.82;;;9.00;71.00;;;;;;5052652;28;20025;-64
2023/04/28 01:55:31;;;;;;;10.07;5.80;;;9.00;70.70;;;;;;5055118;28;20021;-65
2023/04/28 01:57:59;;;;;;;11.80;6.10;;;9.00;70.90;;;;;;5055181;28;20039;-64
2023/04/28 02:00:26;;;;;;;13.15;5.82;;;9.00;71.20;;;;;;5056299;28;20056;-64
2023/04/28 02:02:51;;;;;;;10.95;6.00;;;9.00;70.80;;;;;;5054493;28;20028;-65
2023/04/28 02:05:17;;;;;;;8.80;5.40;;;8.90;70.00;;;;;;5056374;28;20029;-64
2023/04/28 02:07:43;;;;;;;10.02;4.93;;;8.90;69.80;;;;;;5054716;28;20035;-65
2023/04/28 02:10:09;;;;;;;8.40;5.22;;;8.90;69.90;;;;;;5056260;28;20479;-64
2023/04/28 02:12:34;;;;;;;15.60;5.55;;;8.90;69.60;;;;;;5056056;28;20366;-65
2023/04/28 02:15:00;;;;;;;12.68;5.53;;;8.90;69.50;;;;;;5055633;28;20196;-64
2023/04/28 02:17:28;;;;;;;11.38;5.40;;;8.80;69.70;;;;;;5055614;28;20025;-65
2023/04/28 02:19:55;;;;;;;7.63;4.90;;;8.80;69.90;;;;;;5055236;28;20049;-65
2023/04/28 02:22:21;;;;;;;8.85;5.20;;;8.80;69.70;;;;;;5055770;28;20025;-64
2023/04/28 02:24:47;;;;;;;9.30;5.78;;;8.80;69.80;;;;;;5055482;28;20029;-65
2023/04/28 02:27:13;;;;;;;10.60;5.20;;;8.80;70.00;;;;;;5055554;28;20047;-64
2023/04/28 02:29:39;;;;;;;9.20;5.20;;;8.80;70.20;;;;;;5055729;28;20458;-64
2023/04/28 02:32:05;;;;;;;9.90;5.28;;;8.80;70.20;;;;;;5055249;28;20023;-63
2023/04/28 02:34:31;;;;;;;12.48;5.38;;;8.80;70.30;;;;;;5055558;28;20025;-64
2023/04/28 02:36:56;;;;;;;10.05;5.47;;;8.70;70.40;;;;;;5055102;28;20465;-65
2023/04/28 02:39:25;;;;;;;11.55;6.30;;;8.70;71.00;;;;;;5055583;28;20021;-65
2023/04/28 02:41:54;;;;;;;9.32;5.45;;;8.60;71.70;;;;;;5055135;28;20032;-65
2023/04/28 02:44:20;;;;;;;11.05;6.13;;;8.60;71.80;;;;;;5054874;28;20405;-64
2023/04/28 02:46:46;;;;;;;13.52;6.03;;;8.50;72.50;;;;;;5055151;28;20033;-65
2023/04/28 02:49:12;;;;;;;12.60;5.97;;;8.40;73.60;;;;;;5055434;28;20029;-64
2023/04/28 02:51:38;;;;;;;14.10;5.97;;;8.40;73.60;;;;;;5055412;28;20037;-63
2023/04/28 02:54:04;;;;;;;14.63;7.82;;;8.30;74.10;;;;;;5054791;28;20488;-65
2023/04/28 02:56:30;;;;;;;9.95;6.20;;;8.20;74.40;;;;;;5055504;28;20057;-64
2023/04/28 02:58:56;;;;;;;11.35;6.43;;;8.20;74.80;;;;;;5054659;28;20056;-65
2023/04/28 03:01:22;;;;;;;12.05;6.25;;;8.20;74.70;;;;;;5055132;28;20029;-64
2023/04/28 03:03:48;;;;;;;10.63;7.03;;;8.20;74.90;;;;;;5054697;28;20040;-64
2023/04/28 03:06:13;;;;;;;15.98;6.20;;;8.10;75.00;;;;;;5053652;28;20458;-65
2023/04/28 03:08:39;;;;;;;11.60;6.22;;;8.10;75.40;;;;;;5054903;28;20021;-64
2023/04/28 03:11:05;;;;;;;14.27;6.78;;;8.10;75.70;;;;;;5054567;28;20032;-64
2023/04/28 03:13:30;;;;;;;11.05;6.75;;;8.10;75.50;;;;;;5053553;28;20017;-64
2023/04/28 03:15:56;;;;;;;11.68;6.03;;;8.00;75.80;;;;;;5054527;28;20021;-65
2023/04/28 03:18:22;;;;;;;14.13;6.50;;;8.00;76.00;;;;;;5054699;28;20029;-65
2023/04/28 03:20:48;;;;;;;10.85;5.78;;;8.10;76.20;;;;;;5054133;28;20075;-65
2023/04/28 03:23:14;;;;;;;14.25;6.47;;;8.00;76.30;;;;;;5054736;28;20021;-64
2023/04/28 03:25:40;;;;;;;18.50;8.60;;;8.00;76.50;;;;;;5054386;28;20028;-64
2023/04/28 03:28:06;;;;;;;16.63;8.15;;;8.10;76.50;;;;;;5054247;28;20115;-65
2023/04/28 03:30:31;;;;;;;10.02;6.80;;;8.10;77.00;;;;;;5054734;28;20514;-64
2023/04/28 03:32:57;;;;;;;13.63;7.28;;;8.10;76.50;;;;;;5054206;28;20036;-64
2023/04/28 03:35:23;;;;;;;14.10;7.57;;;8.10;76.30;;;;;;5054510;28;20021;-63
2023/04/28 03:37:48;;;;;;;14.55;6.57;;;8.10;76.80;;;;;;5053474;28;20408;-64
2023/04/28 03:40:14;;;;;;;12.05;7.95;;;8.10;76.80;;;;;;5054513;28;20032;-64
2023/04/28 03:42:40;;;;;;;12.77;7.03;;;8.10;76.70;;;;;;5053124;28;20028;-64
2023/04/28 03:45:07;;;;;;;12.23;6.68;;;8.10;76.90;;;;;;5053865;28;20052;-64
2023/04/28 03:47:32;;;;;;;11.70;6.90;;;8.10;77.00;;;;;;5054395;28;20033;-63
2023/04/28 03:49:58;;;;;;;10.98;6.57;;;8.10;77.10;;;;;;5053378;28;20020;-65
2023/04/28 03:52:25;;;;;;;15.32;6.60;;;8.10;77.20;;;;;;5054392;28;20102;-64
2023/04/28 03:54:50;;;;;;;9.32;6.80;;;8.10;77.60;;;;;;5053854;28;20369;-64
2023/04/28 03:57:16;;;;;;;14.45;7.18;;;8.10;77.70;;;;;;5053973;28;20028;-65
2023/04/28 03:59:42;;;;;;;12.93;7.20;;;8.10;77.90;;;;;;5053999;28;20021;-64
2023/04/28 04:02:07;;;;;;;13.57;6.78;;;8.10;78.20;;;;;;5053654;28;20040;-64
2023/04/28 04:04:33;;;;;;;12.95;7.47;;;8.10;78.40;;;;;;5053717;28;20453;-65
2023/04/28 04:06:59;;;;;;;16.85;7.10;;;8.10;78.40;;;;;;5053863;28;20053;-65
2023/04/28 04:09:25;;;;;;;15.43;8.15;;;8.10;78.80;;;;;;5054318;28;20334;-63
2023/04/28 04:11:50;;;;;;;17.10;7.57;;;8.10;79.40;;;;;;5053464;28;20025;-65
2023/04/28 04:14:16;;;;;;;12.50;7.35;;;8.10;79.30;;;;;;5053462;28;20055;-65
2023/04/28 04:16:42;;;;;;;12.60;7.60;;;8.10;79.30;;;;;;5053822;28;20071;-65
2023/04/28 04:19:08;;;;;;;15.60;7.97;;;8.10;79.70;;;;;;5053055;28;20028;-65
2023/04/28 04:21:34;;;;;;;16.77;7.82;;;8.10;80.00;;;;;;5053487;28;20025;-65
2023/04/28 04:24:00;;;;;;;14.63;7.38;;;8.10;80.30;;;;;;5053177;28;20021;-65
2023/04/28 04:26:25;;;;;;;15.63;7.43;;;8.00;80.80;;;;;;5053730;28;20099;-65
2023/04/28 04:28:51;;;;;;;14.48;7.28;;;8.00;81.00;;;;;;5053028;28;20427;-66
2023/04/28 04:31:18;;;;;;;15.73;7.38;;;8.00;81.30;;;;;;5054151;28;20496;-63
2023/04/28 04:33:44;;;;;;;9.52;6.80;;;8.00;81.30;;;;;;5053616;28;20078;-64
2023/04/28 04:36:09;;;;;;;13.40;7.10;;;8.00;81.60;;;;;;5051723;28;20446;-65
2023/04/28 04:38:35;;;;;;;11.18;7.18;;;8.00;81.70;;;;;;5055744;28;20059;-64
2023/04/28 04:41:01;;;;;;;15.32;7.30;;;8.00;82.10;;;;;;5054483;28;20450;-64
2023/04/28 04:43:26;;;;;;;13.95;7.32;;;8.00;82.20;;;;;;5057645;28;20035;-64
2023/04/28 04:45:52;;;;;;;14.90;6.95;;;8.00;82.20;;;;;;5057205;28;20045;-70
2023/04/28 04:48:18;;;;;;;16.88;7.68;;;8.10;81.90;;;;;;5055836;28;20431;-65
2023/04/28 04:50:44;;;;;;;16.45;8.35;;;8.10;82.20;;;;;;5053460;28;20025;-64
2023/04/28 04:53:10;;;;;;;14.60;7.55;;;8.20;82.30;;;;;;5051383;28;20025;-65
2023/04/28 04:55:35;;;;;;;15.07;7.78;;;8.20;82.40;;;;;;5053013;28;20024;-63
2023/04/28 04:58:01;;;;;;;13.65;7.60;;;8.20;82.50;;;;;;5052546;28;20060;-64
2023/04/28 05:00:27;;;;;;;12.77;7.70;;;8.30;83.00;;;;;;5052787;28;20033;-63
2023/04/28 05:02:52;;;;;;;14.93;7.18;;;8.30;82.50;;;;;;5053127;28;20021;-64
2023/04/28 05:05:18;;;;;;;15.98;7.57;;;8.30;82.20;;;;;;5052567;28;20029;-64
2023/04/28 05:07:44;;;;;;;10.70;7.32;;;8.40;82.90;;;;;;5052543;28;20051;-65
2023/04/28 05:10:10;;;;;;;12.15;7.78;;;8.50;83.00;;;;;;5052106;28;20057;-64
2023/04/28 05:12:37;;;;;;;11.98;6.75;;;8.60;82.30;;;;;;5052642;28;20370;-64
2023/04/28 05:15:05;;;;;;;15.63;7.72;;;8.70;82.20;;;;;;5052152;28;20025;-64
2023/04/28 05:17:31;;;;;;;11.82;7.78;;;8.70;82.00;;;;;;5052585;28;20032;-64
2023/04/28 05:19:56;;;;;;;13.40;7.40;;;8.80;81.50;;;;;;5052214;28;20029;-65
2023/04/28 05:22:22;;;;;;;12.30;7.50;;;8.90;81.70;;;;;;5052604;28;20024;-64
2023/04/28 05:24:48;;;;;;;11.75;7.50;;;8.90;81.60;;;;;;5052076;28;20075;-64
2023/04/28 05:27:13;;;;;;;14.88;7.50;;;8.90;81.80;;;;;;5052200;28;20438;-64
2023/04/28 05:29:39;;;;;;;11.48;7.13;;;8.90;82.00;;;;;;5053816;28;20028;-64
2023/04/28 05:32:05;;;;;;;9.63;6.68;;;9.00;82.60;;;;;;5056153;28;20112;-64
2023/04/28 05:34:30;;;;;;;14.13;6.90;;;9.00;82.40;;;;;;5056580;28;20107;-64
2023/04/28 05:36:56;;;;;;;14.52;7.35;;;9.10;82.50;;;;;;5056144;28;20021;-65
2023/04/28 05:39:22;;;;;;;11.10;6.95;;;9.20;81.90;;;;;;5056374;28;20372;-65
2023/04/28 05:41:47;;;;;;;12.32;7.25;;;9.20;82.00;;;;;;5055411;28;20029;-65
2023/04/28 05:44:13;;;;;;;11.23;6.90;;;9.40;82.20;;;;;;5055581;28;20041;-65
2023/04/28 05:46:39;;;;;;;13.10;6.75;;;9.50;81.90;;;;;;5056229;28;20025;-65
2023/04/28 05:49:04;;;;;;;17.98;6.78;;;9.70;81.10;;;;;;5055931;28;20025;-65
2023/04/28 05:51:30;;;;;;;12.10;6.75;;;9.80;80.00;;;;;;5056312;28;20057;-65
2023/04/28 05:53:56;;;;;;;10.93;6.28;;;9.90;79.60;;;;;;5054319;28;20025;-64
2023/04/28 05:56:21;;;;;;;11.48;7.00;;;10.00;78.60;;;;;;5056120;28;20020;-66
2023/04/28 05:58:49;;;;;;;15.95;6.47;;;10.30;78.10;;;;;;5056148;28;20035;-65
2023/04/28 06:01:15;;;;;;;14.88;6.82;;;10.50;77.00;;;;;;5055872;28;20017;-65
2023/04/28 06:03:41;;;;;;;13.23;5.75;;;10.70;75.90;;;;;;5056121;28;20029;-64
2023/04/28 06:06:09;;;;;;;12.10;6.55;;;11.00;75.30;;;;;;5055398;28;20102;-64
2023/04/28 06:08:35;;;;;;;12.75;5.70;;;11.30;74.30;;;;;;5056135;28;20032;-64
2023/04/28 06:11:00;;;;;;;9.88;5.75;;;11.70;74.10;;;;;;5055929;28;20025;-64
2023/04/28 06:13:26;;;;;;;10.85;6.43;;;11.90;72.70;;;;;;5055789;28;20013;-64
2023/04/28 06:15:52;;;;;;;11.25;6.03;;;12.10;70.50;;;;;;5055900;28;20404;-65
2023/04/28 06:18:18;;;;;;;12.50;5.82;;;12.10;70.60;;;;;;5055213;28;20281;-64
2023/04/28 06:20:43;;;;;;;11.50;5.85;;;12.20;69.40;;;;;;5054591;28;20027;-65
2023/04/28 06:23:09;;;;;;;16.20;6.03;;;12.30;69.20;;;;;;5055053;28;20079;-65
2023/04/28 06:25:35;;;;;;;12.75;5.93;;;12.40;68.90;;;;;;5055783;28;20369;-65
2023/04/28 06:28:01;;;;;;;10.10;5.60;;;12.70;68.30;;;;;;5055194;28;20054;-65
2023/04/28 06:30:27;;;;;;;13.30;5.40;;;12.80;67.40;;;;;;5056123;28;20017;-65
2023/04/28 06:32:53;;;;;;;14.30;5.05;;;13.30;66.80;;;;;;5055590;28;20346;-64
2023/04/28 06:35:19;;;;;;;10.98;5.68;;;13.60;64.00;;;;;;5053882;28;20021;-65
2023/04/28 06:37:44;;;;;;;9.48;5.50;;;13.70;63.20;;;;;;5055412;28;20032;-64
2023/04/28 06:40:10;;;;;;;7.68;4.78;;;13.90;62.80;;;;;;5053606;28;20120;-63
2023/04/28 06:42:36;;;;;;;10.75;6.28;;;14.30;63.00;;;;;;5055472;28;20023;-65
2023/04/28 06:45:02;;;;;;;13.32;5.47;;;14.60;60.90;;;;;;5054872;28;20045;-65
2023/04/28 06:47:28;;;;;;;16.48;5.75;;;14.90;59.40;;;;;;5054892;28;20029;-65
2023/04/28 06:49:54;;;;;;;9.27;5.47;;;15.00;59.20;;;;;;5055135;28;20067;-65
2023/04/28 06:52:21;;;;;;;11.48;4.65;;;15.40;58.70;;;;;;5054686;28;20423;-64
2023/04/28 06:54:47;;;;;;;9.27;5.05;;;15.90;56.90;;;;;;5054869;28;20031;-64
2023/04/28 06:57:13;;;;;;;8.77;5.55;;;16.00;55.70;;;;;;5054609;28;20047;-64
2023/04/28 06:59:38;;;;;;;14.80;5.30;;;15.90;55.80;;;;;;5055182;28;20416;-64
2023/04/28 07:02:04;;;;;;;11.70;5.30;;;15.80;56.40;;;;;;5054628;28;20445;-64
2023/04/28 07:04:30;;;;;;;9.70;5.55;;;15.60;57.00;;;;;;5055023;28;20026;-64
2023/04/28 07:06:55;;;;;;;11.15;4.95;;;15.30;57.40;;;;;;5055004;28;20047;-64
2023/04/28 07:09:21;;;;;;;10.25;5.03;;;14.90;58.80;;;;;;5053111;28;20100;-65
2023/04/28 07:11:47;;;;;;;12.60;5.03;;;14.90;59.20;;;;;;5054955;28;20021;-65
2023/04/28 07:14:12;;;;;;;9.93;5.20;;;15.00;59.50;;;;;;5054062;28;20025;-65
2023/04/28 07:16:38;;;;;;;10.77;5.15;;;15.40;59.30;;;;;;5054723;28;20040;-65
2023/04/28 07:19:04;;;;;;;8.63;4.85;;;15.80;57.80;;;;;;5054090;28;20032;-65
2023/04/28 07:21:30;;;;;;;7.68;4.97;;;16.40;56.70;;;;;;5054597;28;20449;-64
2023/04/28 07:23:55;;;;;;;7.57;4.97;;;17.20;54.60;;;;;;5054668;28;20048;-65
2023/04/28 07:26:24;;;;;;;8.88;4.40;;;18.00;53.20;;;;;;5053831;28;20400;-65
2023/04/28 07:28:50;;;;;;;7.18;4.00;;;18.80;51.70;;;;;;5054234;28;20024;-64
2023/04/28 07:31:16;;;;;;;10.05;4.05;;;19.80;49.40;;;;;;5054157;28;20017;-65
2023/04/28 07:33:42;;;;;;;12.65;3.83;;;20.60;46.80;;;;;;5054396;28;20155;-65
2023/04/28 07:36:07;;;;;;;7.63;3.33;;;21.00;43.80;;;;;;5053594;28;20033;-65
2023/04/28 07:38:34;;;;;;;6.80;3.20;;;20.80;43.10;;;;;;5054312;28;20059;-65
2023/04/28 07:41:01;;;;;;;9.98;3.28;;;21.60;43.10;;;;;;5054348;28;20025;-64
2023/04/28 07:43:26;;;;;;;5.18;3.30;;;21.90;41.60;;;;;;5052477;28;20021;-65
2023/04/28 07:45:52;;;;;;;6.10;3.45;;;22.40;40.80;;;;;;5051961;28;20103;-65
2023/04/28 07:48:18;;;;;;;6.85;3.35;;;22.90;40.20;;;;;;5053655;28;20032;-65
2023/04/28 07:50:43;;;;;;;5.72;3.10;;;23.70;39.10;;;;;;5053841;28;20028;-65
2023/04/28 07:53:09;;;;;;;7.20;3.25;;;24.40;38.00;;;;;;5052824;28;20066;-66
2023/04/28 07:55:35;;;;;;;5.47;3.40;;;24.20;36.70;;;;;;5053804;28;20040;-65
2023/04/28 07:58:01;;;;;;;9.55;3.22;;;24.40;36.90;;;;;;5053798;28;20404;-65
2023/04/28 08:00:26;;;;;;;6.70;3.20;;;24.60;36.30;;;;;;5053075;28;20021;-65
2023/04/28 08:02:52;;;;;;;4.45;2.67;;;24.70;36.00;;;;;;5053550;28;20043;-64
2023/04/28 08:05:18;;;;;;;10.20;3.38;;;24.90;36.40;;;;;;5052130;28;20120;-65
2023/04/28 08:07:44;;;;;;;5.95;2.95;;;24.80;35.70;;;;;;5053680;28;20032;-64
2023/04/28 08:10:10;;;;;;;9.27;3.53;;;24.00;36.70;;;;;;5053320;28;20021;-65
2023/04/28 08:12:36;;;;;;;10.18;3.55;;;22.00;38.20;;;;;;5053684;28;20028;-64
2023/04/28 08:15:02;;;;;;;5.85;3.67;;;20.90;40.40;;;;;;5053571;28;20112;-64
2023/04/28 08:17:28;;;;;;;10.98;3.47;;;19.70;42.50;;;;;;5051848;28;20108;-64
2023/04/28 08:19:54;;;;;;;7.72;3.40;;;19.20;44.40;;;;;;5053333;28;20438;-65
2023/04/28 08:22:20;;;;;;;9.95;3.13;;;19.30;45.50;;;;;;5053170;28;20020;-65
2023/04/28 08:24:45;;;;;;;7.40;3.20;;;19.50;45.60;;;;;;5053370;28;20021;-65
2023/04/28 08:27:11;;;;;;;5.78;3.25;;;19.40;44.80;;;;;;5052681;28;20028;-65
2023/04/28 08:29:38;;;;;;;11.65;3.10;;;18.90;45.70;;;;;;5053415;28;20061;-65
2023/04/28 08:32:05;;;;;;;11.75;3.10;;;18.60;46.70;;;;;;5053452;28;20025;-64
2023/04/28 08:34:34;;;;;;;5.65;3.08;;;18.80;47.20;;;;;;5052879;28;20107;-64
2023/04/28 08:37:00;;;;;;;6.57;3.20;;;18.80;46.50;;;;;;5053015;28;20025;-65
2023/04/28 08:39:26;;;;;;;7.20;3.55;;;19.00;46.60;;;;;;5052714;28;20029;-64
2023/04/28 08:41:52;;;;;;;7.07;3.60;;;18.90;46.70;;;;;;5053068;28;20017;-64
2023/04/28 08:44:18;;;;;;;11.30;2.70;;;18.80;47.10;;;;;;5052123;28;20123;-65
2023/04/28 08:46:45;;;;;;;7.82;2.97;;;18.90;46.70;;;;;;5053285;28;20403;-65
2023/04/28 08:49:15;;;;;;;8.73;3.75;;;18.80;46.90;;;;;;5052649;28;20024;-65
2023/04/28 08:51:48;;;;;;;9.27;2.63;;;19.00;47.20;;;;;;5053050;28;20021;-64
2023/04/28 08:54:15;;;;;;;7.60;3.00;;;19.20;47.10;;;;;;5052722;28;20481;-66
2023/04/28 08:56:44;;;;;;;4.63;2.90;;;19.40;46.50;;;;;;5053203;28;20028;-65
2023/04/28 08:59:11;;;;;;;5.07;3.22;;;19.30;46.50;;;;;;5052688;28;20535;-65
2023/04/28 09:01:37;;;;;;;7.22;3.00;;;19.40;46.10;;;;;;5052856;28;20036;-65
2023/04/28 09:04:03;;;;;;;6.63;2.97;;;19.40;46.30;;;;;;5051872;28;20035;-65
2023/04/28 09:06:38;;;;;;;8.65;3.03;;;19.30;47.30;;;;;;5052247;28;20025;-65
2023/04/28 09:09:29;;;;;;;11.50;2.90;;;19.00;47.10;;;;;;5052781;28;20361;-65
2023/04/28 09:11:55;;;;;;;5.57;3.28;;;18.60;47.90;;;;;;5052860;28;20024;-65
2023/04/28 09:14:22;;;;;;;7.75;3.13;;;18.50;49.30;;;;;;5052253;28;20013;-65
2023/04/28 09:16:48;;;;;;;6.65;3.15;;;18.30;49.90;;;;;;5052692;28;20033;-65
2023/04/28 09:19:16;;;;;;;7.03;3.17;;;18.30;49.90;;;;;;5052203;28;20112;-65
2023/04/28 09:21:48;;;;;;;9.88;4.10;;;18.20;49.90;;;;;;5052588;28;20104;-65
2023/04/28 09:24:31;;;;;;;7.25;3.03;;;17.90;50.50;;;;;;5052290;28;20021;-67
2023/04/28 09:27:02;;;;;;;9.40;3.10;;;17.80;51.20;;;;;;5052807;28;20032;-65
2023/04/28 09:29:28;;;;;;;5.53;2.80;;;17.80;51.50;;;;;;5051777;28;20052;-65
2023/04/28 09:32:10;;;;;;;6.85;2.90;;;17.80;52.20;;;;;;5052526;28;20116;-64
2023/04/28 09:34:44;;;;;;;7.57;3.22;;;17.90;51.30;;;;;;5052176;28;20330;-64
2023/04/28 09:37:26;;;;;;;7.30;2.95;;;17.70;51.90;;;;;;5052515;28;20028;-65
2023/04/28 09:39:53;;;;;;;8.23;2.78;;;17.40;52.50;;;;;;5052378;28;20059;-65
2023/04/28 09:42:37;;;;;;;5.70;3.42;;;17.50;53.10;;;;;;5052357;28;20021;-66
2023/04/28 09:45:08;;;;;;;8.02;3.28;;;17.70;52.60;;;;;;5052304;28;20106;-66
2023/04/28 09:47:36;;;;;;;5.78;2.88;;;17.90;53.00;;;;;;5052097;28;20462;-66
2023/04/28 09:50:04;;;;;;;6.05;2.83;;;18.00;52.00;;;;;;5051742;28;20033;-65
2023/04/28 09:52:35;;;;;;;8.20;3.03;;;18.00;52.40;;;;;;5051875;28;20021;-66
2023/04/28 09:55:06;;;;;;;8.23;2.92;;;18.20;52.10;;;;;;5052512;28;20021;-64
2023/04/28 09:57:32;;;;;;;18.13;3.13;;;18.30;51.20;;;;;;5051862;28;20052;-64
2023/04/28 09:59:59;;;;;;;4.80;2.40;;;18.40;50.40;;;;;;5051838;28;20453;-65
2023/04/28 10:02:25;;;;;;;7.18;2.47;;;18.10;50.10;;;;;;5051535;28;20092;-64
2023/04/28 10:04:51;;;;;;;7.03;2.78;;;18.20;50.90;;;;;;5052089;28;20025;-64
2023/04/28 10:07:19;;;;;;;8.20;2.33;;;18.20;50.40;;;;;;5051519;28;20096;-65
2023/04/28 10:09:49;;;;;;;4.35;2.30;;;18.20;50.50;;;;;;5051992;28;20056;-64
2023/04/28 10:12:20;;;;;;;5.68;2.72;;;18.20;50.20;;;;;;5052309;28;20025;-65
2023/04/28 10:14:53;;;;;;;4.55;2.30;;;18.20;50.40;;;;;;5052154;28;20450;-64
2023/04/28 10:17:26;;;;;;;6.82;2.67;;;18.30;50.10;;;;;;5055030;28;20039;-64
2023/04/28 10:19:53;;;;;;;4.22;2.30;;;18.40;50.60;;;;;;5055908;28;20025;-64
2023/04/28 10:22:52;;;;;;;7.35;2.47;;;18.50;50.90;;;;;;5055479;28;20064;-65
2023/04/28 10:25:34;;;;;;;4.78;2.63;;;18.60;50.10;;;;;;5055362;28;20028;-66
2023/04/28 10:28:03;;;;;;;4.78;2.70;;;18.60;49.50;;;;;;5055755;28;20025;-64
2023/04/28 10:30:30;;;;;;;7.45;3.00;;;18.50;49.50;;;;;;5055261;28;20023;-65
2023/04/28 10:33:08;;;;;;;7.72;2.88;;;18.50;50.20;;;;;;5055650;28;20060;-64
2023/04/28 10:35:35;;;;;;;4.50;2.42;;;18.60;50.80;;;;;;5055133;28;20020;-66
2023/04/28 10:38:12;;;;;;;4.70;2.67;;;18.70;50.20;;;;;;5055723;28;20108;-64
2023/04/28 10:40:39;;;;;;;3.63;2.30;;;18.80;50.30;;;;;;5055414;28;20549;-65
2023/04/28 10:43:06;;;;;;;4.72;2.28;;;18.90;49.10;;;;;;5055834;28;20024;-66
2023/04/28 10:45:54;;;;;;;8.20;2.45;;;18.70;49.10;;;;;;5056075;28;20045;-66
2023/04/28 10:48:22;;;;;;;4.72;1.90;;;18.70;49.90;;;;;;5054978;28;20351;-66
2023/04/28 10:51:06;;;;;;;4.82;2.40;;;18.70;49.80;;;;;;5055285;28;20036;-66
2023/04/28 10:53:43;;;;;;;10.65;2.88;;;18.70;50.20;;;;;;5054835;28;20099;-66
2023/04/28 10:56:20;;;;;;;6.18;2.40;;;18.80;50.40;;;;;;5055111;28;20057;-65
2023/04/28 10:58:49;;;;;;;8.45;2.67;;;18.70;50.10;;;;;;5055184;28;20032;-65
2023/04/28 11:01:21;;;;;;;5.15;2.80;;;18.70;50.70;;;;;;5054931;28;20020;-66
2023/04/28 11:04:11;;;;;;;5.43;2.33;;;18.70;50.60;;;;;;5054893;28;20025;-65
2023/04/28 11:07:08;;;;;;;4.40;2.50;;;18.90;50.60;;;;;;5054559;28;20383;-64
2023/04/28 11:09:33;;;;;;;5.43;2.60;;;19.00;50.60;;;;;;5054200;28;20068;-65
2023/04/28 11:11:59;;;;;;;5.45;2.40;;;19.10;49.70;;;;;;5054949;28;20370;-65
2023/04/28 11:14:24;;;;;;;7.32;2.22;;;19.10;49.60;;;;;;5054395;28;20028;-66
2023/04/28 11:16:51;;;;;;;4.72;2.38;;;19.20;50.10;;;;;;5054666;28;20465;-64
2023/04/28 11:19:33;;;;;;;6.22;2.15;;;19.30;49.30;;;;;;5054658;28;20116;-65
2023/04/28 11:22:00;;;;;;;6.05;2.28;;;19.40;49.40;;;;;;5054877;28;20059;-65
2023/04/28 11:24:28;;;;;;;5.50;2.10;;;19.50;49.40;;;;;;5054259;28;20100;-65
2023/04/28 11:26:55;;;;;;;7.78;2.38;;;19.60;48.80;;;;;;5054139;28;20021;-65
2023/04/28 11:29:32;;;;;;;4.65;2.50;;;19.60;49.30;;;;;;5054725;28;20029;-65
2023/04/28 11:31:58;;;;;;;6.95;2.28;;;19.60;49.00;;;;;;5054392;28;20028;-65
2023/04/28 11:34:24;;;;;;;6.18;2.28;;;19.50;49.10;;;;;;5054059;28;20104;-66
2023/04/28 11:36:50;;;;;;;3.80;2.25;;;19.50;48.70;;;;;;5054360;28;20479;-65
2023/04/28 11:39:24;;;;;;;7.68;2.45;;;19.50;48.80;;;;;;5053805;28;20033;-65
2023/04/28 11:41:49;;;;;;;4.20;2.10;;;19.30;48.90;;;;;;5052160;28;20460;-64
2023/04/28 11:44:20;;;;;;;8.52;2.65;;;19.30;49.10;;;;;;5054017;28;20041;-64
2023/04/28 11:46:49;;;;;;;4.13;2.17;;;19.10;49.90;;;;;;5053859;28;20049;-65
2023/04/28 11:49:15;;;;;;;3.70;2.20;;;19.20;50.70;;;;;;5054144;28;20484;-65
2023/04/28 11:51:43;;;;;;;2.83;2.00;;;19.30;49.90;;;;;;5054038;28;20025;-65
2023/04/28 11:54:13;;;;;;;5.38;2.10;;;19.30;49.90;;;;;;5054074;28;20017;-65
2023/04/28 11:56:41;;;;;;;7.78;2.05;;;19.40;50.00;;;;;;5053490;28;20013;-65
2023/04/28 11:59:09;;;;;;;6.45;2.50;;;19.30;49.20;;;;;;5053486;28;20025;-65
2023/04/28 12:01:57;;;;;;;7.55;2.65;;;19.30;49.30;;;;;;5053493;28;20024;-65
2023/04/28 12:04:27;;;;;;;4.18;2.05;;;19.10;49.50;;;;;;5054016;28;20013;-65
2023/04/28 12:07:05;;;;;;;6.70;2.45;;;19.00;50.10;;;;;;5052863;28;20449;-65
2023/04/28 12:09:33;;;;;;;6.22;2.40;;;19.10;50.70;;;;;;5053107;28;20025;-64
2023/04/28 12:12:01;;;;;;;8.52;2.80;;;19.10;50.80;;;;;;5054011;28;20029;-64
2023/04/28 12:14:28;;;;;;;3.95;2.10;;;19.10;51.20;;;;;;5053228;28;20036;-64
2023/04/28 12:16:55;;;;;;;3.55;2.50;;;19.10;50.00;;;;;;5053604;28;20449;-64
2023/04/28 12:19:21;;;;;;;11.18;2.70;;;18.80;50.70;;;;;;5053724;28;20435;-64
2023/04/28 12:22:06;;;;;;;4.45;2.30;;;18.60;50.90;;;;;;5053128;28;20092;-65
2023/04/28 12:24:34;;;;;;;4.22;2.33;;;18.60;51.10;;;;;;5053131;28;20055;-65
2023/04/28 12:27:24;;;;;;;4.65;2.00;;;18.60;50.90;;;;;;5053408;28;20029;-64
2023/04/28 12:29:50;;;;;;;6.80;2.42;;;18.40;51.00;;;;;;5053102;28;20070;-65
2023/04/28 12:32:16;;;;;;;9.32;2.35;;;18.40;51.80;;;;;;5053439;28;20151;-65
2023/04/28 12:34:44;;;;;;;6.30;2.40;;;18.30;52.00;;;;;;5052807;28;20097;-64
2023/04/28 12:37:11;;;;;;;5.00;2.40;;;18.30;52.20;;;;;;5053398;28;20028;-65
2023/04/28 12:39:38;;;;;;;4.65;2.40;;;18.30;51.90;;;;;;5052562;28;20021;-64
2023/04/28 12:42:05;;;;;;;6.80;2.30;;;18.20;52.30;;;;;;5053170;28;20032;-64
2023/04/28 12:44:35;;;;;;;4.45;2.53;;;17.90;52.40;;;;;;5052558;28;20453;-65
2023/04/28 12:47:07;;;;;;;3.85;2.15;;;17.70;52.70;;;;;;5053053;28;20090;-64